sensor_id;sensor_type;location;lat;lon;timestamp;temperature;humidity
20795;DHT22;28087;-33.874;151.240;2022-11-23T00:01:34;24.30;99.90
20795;DHT22;28087;-33.874;151.240;2022-11-23T00:04:13;24.30;99.90
20795;DHT22;28087;-33.874;151.240;2022-11-23T00:06:48;24.40;99.90
20795;DHT22;28087;-33.874;151.240;2022-11-23T00:09:25;24.50;99.90
20795;DHT22;28087;-33.874;151.240;2022-11-23T00:12:01;24.50;99.90
20795;DHT22;28087;-33.874;151.240;2022-11-23T00:14:40;24.50;99.90
20795;DHT22;28087;-33.874;151.240;2022-11-23T00:17:15;24.60;99.90
20795;DHT22;28087;-33.874;151.240;2022-11-23T00:19:51;24.60;99.90
20795;DHT22;28087;-33.874;151.240;2022-11-23T00:22:26;24.60;99.80
20795;DHT22;28087;-33.874;151.240;2022-11-23T00:25:02;24.70;99.90
20795;DHT22;28087;-33.874;151.240;2022-11-23T00:27:38;24.80;99.40
20795;DHT22;28087;-33.874;151.240;2022-11-23T00:30:16;24.90;99.70
20795;DHT22;28087;-33.874;151.240;2022-11-23T00:32:55;24.90;99.30
20795;DHT22;28087;-33.874;151.240;2022-11-23T00:35:33;25.00;99.10
20795;DHT22;28087;-33.874;151.240;2022-11-23T00:38:09;25.10;99.30
20795;DHT22;28087;-33.874;151.240;2022-11-23T00:40:45;25.10;99.20
20795;DHT22;28087;-33.874;151.240;2022-11-23T00:43:21;25.10;99.30
20795;DHT22;28087;-33.874;151.240;2022-11-23T00:46:08;25.30;99.10
20795;DHT22;28087;-33.874;151.240;2022-11-23T00:48:44;25.30;99.10
20795;DHT22;28087;-33.874;151.240;2022-11-23T00:51:22;25.40;99.00
20795;DHT22;28087;-33.874;151.240;2022-11-23T00:53:58;25.50;99.30
20795;DHT22;28087;-33.874;151.240;2022-11-23T00:56:35;25.50;98.50
20795;DHT22;28087;-33.874;151.240;2022-11-23T00:59:11;25.40;98.80
20795;DHT22;28087;-33.874;151.240;2022-11-23T01:01:49;25.50;98.50
20795;DHT22;28087;-33.874;151.240;2022-11-23T01:04:25;25.50;99.00
20795;DHT22;28087;-33.874;151.240;2022-11-23T01:07:01;25.60;98.90
20795;DHT22;28087;-33.874;151.240;2022-11-23T01:09:38;25.60;98.60
20795;DHT22;28087;-33.874;151.240;2022-11-23T01:12:15;25.70;98.70
20795;DHT22;28087;-33.874;151.240;2022-11-23T01:14:52;25.80;98.90
20795;DHT22;28087;-33.874;151.240;2022-11-23T01:17:32;25.50;98.20
20795;DHT22;28087;-33.874;151.240;2022-11-23T01:20:11;25.50;98.30
20795;DHT22;28087;-33.874;151.240;2022-11-23T01:22:46;25.40;98.20
20795;DHT22;28087;-33.874;151.240;2022-11-23T01:25:22;25.40;98.50
20795;DHT22;28087;-33.874;151.240;2022-11-23T01:28:00;25.60;98.90
20795;DHT22;28087;-33.874;151.240;2022-11-23T01:30:37;25.70;98.40
20795;DHT22;28087;-33.874;151.240;2022-11-23T01:33:15;25.80;98.80
20795;DHT22;28087;-33.874;151.240;2022-11-23T01:35:51;25.80;98.50
20795;DHT22;28087;-33.874;151.240;2022-11-23T01:38:28;25.80;98.20
20795;DHT22;28087;-33.874;151.240;2022-11-23T01:41:06;25.90;98.70
20795;DHT22;28087;-33.874;151.240;2022-11-23T01:43:42;26.00;98.60
20795;DHT22;28087;-33.874;151.240;2022-11-23T01:46:22;26.20;99.00
20795;DHT22;28087;-33.874;151.240;2022-11-23T01:49:02;26.20;98.30
20795;DHT22;28087;-33.874;151.240;2022-11-23T01:51:40;26.20;98.00
20795;DHT22;28087;-33.874;151.240;2022-11-23T01:54:20;26.20;98.30
20795;DHT22;28087;-33.874;151.240;2022-11-23T01:56:58;26.30;97.90
20795;DHT22;28087;-33.874;151.240;2022-11-23T01:59:35;26.30;97.80
20795;DHT22;28087;-33.874;151.240;2022-11-23T02:02:13;26.30;97.90
20795;DHT22;28087;-33.874;151.240;2022-11-23T02:04:55;26.30;97.90
20795;DHT22;28087;-33.874;151.240;2022-11-23T02:07:33;26.30;97.70
20795;DHT22;28087;-33.874;151.240;2022-11-23T02:10:10;26.30;97.60
20795;DHT22;28087;-33.874;151.240;2022-11-23T02:12:46;26.30;97.40
20795;DHT22;28087;-33.874;151.240;2022-11-23T02:15:22;26.30;97.30
20795;DHT22;28087;-33.874;151.240;2022-11-23T02:18:00;26.30;97.50
20795;DHT22;28087;-33.874;151.240;2022-11-23T02:20:40;26.30;97.30
20795;DHT22;28087;-33.874;151.240;2022-11-23T02:23:25;26.30;97.30
20795;DHT22;28087;-33.874;151.240;2022-11-23T02:26:13;26.40;97.30
20795;DHT22;28087;-33.874;151.240;2022-11-23T02:28:55;26.50;97.50
20795;DHT22;28087;-33.874;151.240;2022-11-23T02:31:33;26.50;97.20
20795;DHT22;28087;-33.874;151.240;2022-11-23T02:34:08;26.60;97.70
20795;DHT22;28087;-33.874;151.240;2022-11-23T02:36:46;26.70;97.80
20795;DHT22;28087;-33.874;151.240;2022-11-23T02:39:25;26.80;97.50
20795;DHT22;28087;-33.874;151.240;2022-11-23T02:42:07;26.90;97.30
20795;DHT22;28087;-33.874;151.240;2022-11-23T02:44:48;26.90;97.30
20795;DHT22;28087;-33.874;151.240;2022-11-23T02:47:26;26.90;97.10
20795;DHT22;28087;-33.874;151.240;2022-11-23T02:50:03;26.90;96.80
20795;DHT22;28087;-33.874;151.240;2022-11-23T02:52:38;26.90;96.80
20795;DHT22;28087;-33.874;151.240;2022-11-23T02:55:18;26.90;97.10
20795;DHT22;28087;-33.874;151.240;2022-11-23T02:57:56;27.00;96.90
20795;DHT22;28087;-33.874;151.240;2022-11-23T03:00:33;27.00;96.10
20795;DHT22;28087;-33.874;151.240;2022-11-23T03:03:09;27.00;97.00
20795;DHT22;28087;-33.874;151.240;2022-11-23T03:05:46;27.00;96.60
20795;DHT22;28087;-33.874;151.240;2022-11-23T03:08:21;27.10;96.40
20795;DHT22;28087;-33.874;151.240;2022-11-23T03:10:56;27.10;96.50
20795;DHT22;28087;-33.874;151.240;2022-11-23T03:13:37;27.10;96.60
20795;DHT22;28087;-33.874;151.240;2022-11-23T03:16:15;27.10;96.60
20795;DHT22;28087;-33.874;151.240;2022-11-23T03:18:51;27.10;95.90
20795;DHT22;28087;-33.874;151.240;2022-11-23T03:21:27;27.10;96.40
20795;DHT22;28087;-33.874;151.240;2022-11-23T03:24:08;27.20;96.60
20795;DHT22;28087;-33.874;151.240;2022-11-23T03:26:44;27.30;96.60
20795;DHT22;28087;-33.874;151.240;2022-11-23T03:29:24;27.30;96.30
20795;DHT22;28087;-33.874;151.240;2022-11-23T03:32:02;27.40;96.30
20795;DHT22;28087;-33.874;151.240;2022-11-23T03:34:41;27.40;95.60
20795;DHT22;28087;-33.874;151.240;2022-11-23T03:37:18;27.40;95.80
20795;DHT22;28087;-33.874;151.240;2022-11-23T03:39:55;27.40;95.70
20795;DHT22;28087;-33.874;151.240;2022-11-23T03:43:00;27.50;95.90
20795;DHT22;28087;-33.874;151.240;2022-11-23T03:45:38;27.60;95.60
20795;DHT22;28087;-33.874;151.240;2022-11-23T03:48:13;27.50;95.90
20795;DHT22;28087;-33.874;151.240;2022-11-23T03:50:53;27.40;95.50
20795;DHT22;28087;-33.874;151.240;2022-11-23T03:53:33;27.50;95.50
20795;DHT22;28087;-33.874;151.240;2022-11-23T03:56:17;27.40;95.90
20795;DHT22;28087;-33.874;151.240;2022-11-23T03:58:54;27.50;95.90
20795;DHT22;28087;-33.874;151.240;2022-11-23T04:01:32;27.60;95.70
20795;DHT22;28087;-33.874;151.240;2022-11-23T04:04:12;27.60;95.50
20795;DHT22;28087;-33.874;151.240;2022-11-23T04:06:59;27.70;95.90
20795;DHT22;28087;-33.874;151.240;2022-11-23T04:09:47;27.70;96.00
20795;DHT22;28087;-33.874;151.240;2022-11-23T04:12:41;27.60;95.50
20795;DHT22;28087;-33.874;151.240;2022-11-23T04:15:19;27.60;95.80
20795;DHT22;28087;-33.874;151.240;2022-11-23T04:17:58;27.60;95.00
20795;DHT22;28087;-33.874;151.240;2022-11-23T04:20:35;27.60;95.70
20795;DHT22;28087;-33.874;151.240;2022-11-23T04:23:11;27.50;95.90
20795;DHT22;28087;-33.874;151.240;2022-11-23T04:25:50;27.60;95.70
20795;DHT22;28087;-33.874;151.240;2022-11-23T04:28:27;27.60;95.10
20795;DHT22;28087;-33.874;151.240;2022-11-23T04:31:04;27.40;95.20
20795;DHT22;28087;-33.874;151.240;2022-11-23T04:34:02;27.40;95.60
20795;DHT22;28087;-33.874;151.240;2022-11-23T04:36:41;27.20;95.50
20795;DHT22;28087;-33.874;151.240;2022-11-23T04:39:22;27.30;95.60
20795;DHT22;28087;-33.874;151.240;2022-11-23T04:42:13;27.30;96.10
20795;DHT22;28087;-33.874;151.240;2022-11-23T04:45:00;27.40;94.80
20795;DHT22;28087;-33.874;151.240;2022-11-23T04:47:36;27.30;95.60
20795;DHT22;28087;-33.874;151.240;2022-11-23T04:50:18;27.30;94.90
20795;DHT22;28087;-33.874;151.240;2022-11-23T04:52:57;27.20;95.20
20795;DHT22;28087;-33.874;151.240;2022-11-23T04:55:42;27.20;95.10
20795;DHT22;28087;-33.874;151.240;2022-11-23T04:58:19;27.20;95.80
20795;DHT22;28087;-33.874;151.240;2022-11-23T05:01:02;27.10;96.60
20795;DHT22;28087;-33.874;151.240;2022-11-23T05:04:01;27.00;97.50
20795;DHT22;28087;-33.874;151.240;2022-11-23T05:06:43;26.70;97.80
20795;DHT22;28087;-33.874;151.240;2022-11-23T05:09:20;26.30;98.10
20795;DHT22;28087;-33.874;151.240;2022-11-23T05:12:08;26.10;98.40
20795;DHT22;28087;-33.874;151.240;2022-11-23T05:14:44;25.90;98.80
20795;DHT22;28087;-33.874;151.240;2022-11-23T05:17:26;25.80;99.00
20795;DHT22;28087;-33.874;151.240;2022-11-23T05:20:02;25.70;99.40
20795;DHT22;28087;-33.874;151.240;2022-11-23T05:22:46;25.50;99.10
20795;DHT22;28087;-33.874;151.240;2022-11-23T05:25:26;25.50;99.90
20795;DHT22;28087;-33.874;151.240;2022-11-23T05:28:05;25.50;99.90
20795;DHT22;28087;-33.874;151.240;2022-11-23T05:31:03;25.40;99.90
20795;DHT22;28087;-33.874;151.240;2022-11-23T05:33:39;25.40;99.90
20795;DHT22;28087;-33.874;151.240;2022-11-23T05:36:23;25.30;99.90
20795;DHT22;28087;-33.874;151.240;2022-11-23T05:39:01;25.30;99.90
20795;DHT22;28087;-33.874;151.240;2022-11-23T05:41:38;25.30;99.90
20795;DHT22;28087;-33.874;151.240;2022-11-23T05:44:30;25.20;99.90
20795;DHT22;28087;-33.874;151.240;2022-11-23T05:47:13;25.20;99.90
20795;DHT22;28087;-33.874;151.240;2022-11-23T05:49:50;25.10;99.90
20795;DHT22;28087;-33.874;151.240;2022-11-23T05:52:31;25.10;99.90
20795;DHT22;28087;-33.874;151.240;2022-11-23T05:57:47;24.70;99.90
20795;DHT22;28087;-33.874;151.240;2022-11-23T06:00:24;24.90;99.90
20795;DHT22;28087;-33.874;151.240;2022-11-23T06:03:05;24.90;99.90
20795;DHT22;28087;-33.874;151.240;2022-11-23T06:05:42;24.90;99.90
20795;DHT22;28087;-33.874;151.240;2022-11-23T06:08:30;24.90;99.90
20795;DHT22;28087;-33.874;151.240;2022-11-23T06:11:09;24.90;99.90
20795;DHT22;28087;-33.874;151.240;2022-11-23T06:13:47;24.80;99.90
20795;DHT22;28087;-33.874;151.240;2022-11-23T10:18:10;22.00;99.90
20795;DHT22;28087;-33.874;151.240;2022-11-23T10:20:55;22.20;99.90
20795;DHT22;28087;-33.874;151.240;2022-11-23T10:23:52;22.20;99.90
20795;DHT22;28087;-33.874;151.240;2022-11-23T10:26:33;22.20;99.90
20795;DHT22;28087;-33.874;151.240;2022-11-23T10:29:16;22.20;99.90
20795;DHT22;28087;-33.874;151.240;2022-11-23T10:31:55;22.10;99.90
20795;DHT22;28087;-33.874;151.240;2022-11-23T10:34:45;22.20;99.90
20795;DHT22;28087;-33.874;151.240;2022-11-23T10:37:24;22.10;99.90
20795;DHT22;28087;-33.874;151.240;2022-11-23T10:40:01;22.10;99.90
20795;DHT22;28087;-33.874;151.240;2022-11-23T10:42:43;22.00;99.90
20795;DHT22;28087;-33.874;151.240;2022-11-23T10:45:25;22.00;99.90
20795;DHT22;28087;-33.874;151.240;2022-11-23T10:48:06;22.00;99.90
20795;DHT22;28087;-33.874;151.240;2022-11-23T10:50:42;21.90;99.90
20795;DHT22;28087;-33.874;151.240;2022-11-23T10:53:57;21.80;99.90
20795;DHT22;28087;-33.874;151.240;2022-11-23T10:56:46;21.80;99.90
20795;DHT22;28087;-33.874;151.240;2022-11-23T10:59:36;21.80;99.90
20795;DHT22;28087;-33.874;151.240;2022-11-23T11:02:18;21.70;99.90
20795;DHT22;28087;-33.874;151.240;2022-11-23T11:05:20;21.80;99.90
20795;DHT22;28087;-33.874;151.240;2022-11-23T11:08:18;21.80;99.90
20795;DHT22;28087;-33.874;151.240;2022-11-23T11:11:02;21.80;99.90
20795;DHT22;28087;-33.874;151.240;2022-11-23T11:13:42;21.80;99.90
20795;DHT22;28087;-33.874;151.240;2022-11-23T11:16:30;21.80;99.90
20795;DHT22;28087;-33.874;151.240;2022-11-23T11:19:25;21.70;99.90
20795;DHT22;28087;-33.874;151.240;2022-11-23T11:22:38;21.70;99.90
20795;DHT22;28087;-33.874;151.240;2022-11-23T11:25:28;21.70;99.90
20795;DHT22;28087;-33.874;151.240;2022-11-23T11:28:16;21.70;99.90
20795;DHT22;28087;-33.874;151.240;2022-11-23T11:30:59;21.60;99.90
20795;DHT22;28087;-33.874;151.240;2022-11-23T11:33:44;21.60;99.90
20795;DHT22;28087;-33.874;151.240;2022-11-23T11:36:21;21.60;99.90
20795;DHT22;28087;-33.874;151.240;2022-11-23T11:38:59;21.60;99.90
20795;DHT22;28087;-33.874;151.240;2022-11-23T11:41:56;21.50;99.90
20795;DHT22;28087;-33.874;151.240;2022-11-23T11:44:40;21.40;99.90
20795;DHT22;28087;-33.874;151.240;2022-11-23T11:47:26;21.50;99.90
20795;DHT22;28087;-33.874;151.240;2022-11-23T11:50:19;21.60;99.90
20795;DHT22;28087;-33.874;151.240;2022-11-23T11:53:04;21.50;99.90
20795;DHT22;28087;-33.874;151.240;2022-11-23T11:55:52;21.50;99.90
20795;DHT22;28087;-33.874;151.240;2022-11-23T11:58:31;21.50;99.90
20795;DHT22;28087;-33.874;151.240;2022-11-23T12:01:20;21.50;99.90
20795;DHT22;28087;-33.874;151.240;2022-11-23T12:04:06;21.50;99.90
20795;DHT22;28087;-33.874;151.240;2022-11-23T12:06:55;21.50;99.90
20795;DHT22;28087;-33.874;151.240;2022-11-23T12:09:39;21.60;99.90
20795;DHT22;28087;-33.874;151.240;2022-11-23T12:12:19;21.60;99.90
20795;DHT22;28087;-33.874;151.240;2022-11-23T12:15:00;21.60;99.90
20795;DHT22;28087;-33.874;151.240;2022-11-23T12:21:38;21.60;99.90
20795;DHT22;28087;-33.874;151.240;2022-11-23T12:24:34;21.50;99.90
20795;DHT22;28087;-33.874;151.240;2022-11-23T12:27:20;21.50;99.90
20795;DHT22;28087;-33.874;151.240;2022-11-23T12:30:25;21.50;99.90
20795;DHT22;28087;-33.874;151.240;2022-11-23T12:36:32;21.50;99.90
20795;DHT22;28087;-33.874;151.240;2022-11-23T12:39:20;21.50;99.90
20795;DHT22;28087;-33.874;151.240;2022-11-23T12:42:08;21.50;99.90
20795;DHT22;28087;-33.874;151.240;2022-11-23T12:45:12;21.50;99.90
20795;DHT22;28087;-33.874;151.240;2022-11-23T12:48:11;21.40;99.90
20795;DHT22;28087;-33.874;151.240;2022-11-23T12:51:03;21.40;99.90
20795;DHT22;28087;-33.874;151.240;2022-11-23T12:53:53;21.40;99.90
20795;DHT22;28087;-33.874;151.240;2022-11-23T12:56:55;21.30;99.90
20795;DHT22;28087;-33.874;151.240;2022-11-23T12:59:42;21.30;99.90
20795;DHT22;28087;-33.874;151.240;2022-11-23T13:05:47;21.30;99.90
20795;DHT22;28087;-33.874;151.240;2022-11-23T13:08:50;21.20;99.90
20795;DHT22;28087;-33.874;151.240;2022-11-23T13:11:42;21.20;99.90
20795;DHT22;28087;-33.874;151.240;2022-11-23T13:14:26;21.20;99.90
20795;DHT22;28087;-33.874;151.240;2022-11-23T13:17:13;21.20;99.90
20795;DHT22;28087;-33.874;151.240;2022-11-23T13:23:05;21.20;99.90
20795;DHT22;28087;-33.874;151.240;2022-11-23T13:25:41;21.10;99.90
20795;DHT22;28087;-33.874;151.240;2022-11-23T13:28:37;21.10;99.90
20795;DHT22;28087;-33.874;151.240;2022-11-23T13:31:30;21.10;99.90
20795;DHT22;28087;-33.874;151.240;2022-11-23T13:34:43;21.00;99.90
20795;DHT22;28087;-33.874;151.240;2022-11-23T13:37:19;21.00;99.90
20795;DHT22;28087;-33.874;151.240;2022-11-23T13:40:03;21.00;99.90
20795;DHT22;28087;-33.874;151.240;2022-11-23T13:42:39;20.90;99.90
20795;DHT22;28087;-33.874;151.240;2022-11-23T13:45:29;20.90;99.90
20795;DHT22;28087;-33.874;151.240;2022-11-23T13:48:16;20.90;99.90
20795;DHT22;28087;-33.874;151.240;2022-11-23T13:51:26;20.90;99.90
20795;DHT22;28087;-33.874;151.240;2022-11-23T13:54:04;20.80;99.90
20795;DHT22;28087;-33.874;151.240;2022-11-23T13:56:41;20.80;99.90
20795;DHT22;28087;-33.874;151.240;2022-11-23T13:59:28;20.80;99.90
20795;DHT22;28087;-33.874;151.240;2022-11-23T14:05:33;20.90;99.90
20795;DHT22;28087;-33.874;151.240;2022-11-23T14:08:49;20.90;99.90
20795;DHT22;28087;-33.874;151.240;2022-11-23T14:12:26;20.90;99.90
20795;DHT22;28087;-33.874;151.240;2022-11-23T14:15:14;20.90;99.90
20795;DHT22;28087;-33.874;151.240;2022-11-23T14:18:18;20.80;99.90
20795;DHT22;28087;-33.874;151.240;2022-11-23T14:21:07;20.80;99.90
20795;DHT22;28087;-33.874;151.240;2022-11-23T14:27:08;20.70;99.90
20795;DHT22;28087;-33.874;151.240;2022-11-23T14:30:25;20.70;99.90
20795;DHT22;28087;-33.874;151.240;2022-11-23T14:33:21;20.70;99.90
20795;DHT22;28087;-33.874;151.240;2022-11-23T14:36:05;20.70;99.90
20795;DHT22;28087;-33.874;151.240;2022-11-23T14:41:59;20.70;99.90
20795;DHT22;28087;-33.874;151.240;2022-11-23T14:44:39;20.60;99.90
20795;DHT22;28087;-33.874;151.240;2022-11-23T14:47:25;20.60;99.90
20795;DHT22;28087;-33.874;151.240;2022-11-23T14:50:15;20.60;99.90
20795;DHT22;28087;-33.874;151.240;2022-11-23T14:52:59;20.50;99.90
20795;DHT22;28087;-33.874;151.240;2022-11-23T14:55:38;20.50;99.90
20795;DHT22;28087;-33.874;151.240;2022-11-23T14:58:21;20.50;99.90
20795;DHT22;28087;-33.874;151.240;2022-11-23T15:01:00;20.50;99.90
20795;DHT22;28087;-33.874;151.240;2022-11-23T15:03:37;20.50;99.90
20795;DHT22;28087;-33.874;151.240;2022-11-23T15:06:25;20.40;99.90
20795;DHT22;28087;-33.874;151.240;2022-11-23T15:09:14;20.40;99.90
20795;DHT22;28087;-33.874;151.240;2022-11-23T15:11:52;20.40;99.90
20795;DHT22;28087;-33.874;151.240;2022-11-23T15:14:43;20.40;99.90
20795;DHT22;28087;-33.874;151.240;2022-11-23T15:17:23;20.40;99.90
20795;DHT22;28087;-33.874;151.240;2022-11-23T15:19:59;20.40;99.90
20795;DHT22;28087;-33.874;151.240;2022-11-23T15:22:36;20.30;99.90
20795;DHT22;28087;-33.874;151.240;2022-11-23T15:25:14;20.40;99.90
20795;DHT22;28087;-33.874;151.240;2022-11-23T15:27:52;20.30;99.90
20795;DHT22;28087;-33.874;151.240;2022-11-23T15:30:30;20.30;99.90
20795;DHT22;28087;-33.874;151.240;2022-11-23T15:33:10;20.30;99.90
20795;DHT22;28087;-33.874;151.240;2022-11-23T15:35:46;20.30;99.90
20795;DHT22;28087;-33.874;151.240;2022-11-23T15:38:24;20.30;99.90
20795;DHT22;28087;-33.874;151.240;2022-11-23T15:41:00;20.20;99.90
20795;DHT22;28087;-33.874;151.240;2022-11-23T15:43:51;20.20;99.90
20795;DHT22;28087;-33.874;151.240;2022-11-23T15:46:35;20.20;99.90
20795;DHT22;28087;-33.874;151.240;2022-11-23T15:49:14;20.10;99.90
20795;DHT22;28087;-33.874;151.240;2022-11-23T15:51:52;20.10;99.90
20795;DHT22;28087;-33.874;151.240;2022-11-23T15:54:35;20.20;99.90
20795;DHT22;28087;-33.874;151.240;2022-11-23T15:57:17;20.20;99.90
20795;DHT22;28087;-33.874;151.240;2022-11-23T15:59:57;20.20;99.90
20795;DHT22;28087;-33.874;151.240;2022-11-23T16:02:46;20.10;99.90
20795;DHT22;28087;-33.874;151.240;2022-11-23T16:05:23;20.10;99.90
20795;DHT22;28087;-33.874;151.240;2022-11-23T16:08:22;20.10;99.90
20795;DHT22;28087;-33.874;151.240;2022-11-23T16:11:00;20.10;99.90
20795;DHT22;28087;-33.874;151.240;2022-11-23T16:13:37;20.10;99.90
20795;DHT22;28087;-33.874;151.240;2022-11-23T16:16:16;20.00;99.90
20795;DHT22;28087;-33.874;151.240;2022-11-23T16:18:56;20.00;99.90
20795;DHT22;28087;-33.874;151.240;2022-11-23T16:21:33;20.00;99.90
20795;DHT22;28087;-33.874;151.240;2022-11-23T16:24:19;20.00;99.90
20795;DHT22;28087;-33.874;151.240;2022-11-23T16:26:56;19.90;99.90
20795;DHT22;28087;-33.874;151.240;2022-11-23T16:29:35;19.90;99.90
20795;DHT22;28087;-33.874;151.240;2022-11-23T16:32:22;19.90;99.90
20795;DHT22;28087;-33.874;151.240;2022-11-23T16:35:14;19.90;99.90
20795;DHT22;28087;-33.874;151.240;2022-11-23T16:37:51;19.90;99.90
20795;DHT22;28087;-33.874;151.240;2022-11-23T16:40:28;19.90;99.90
20795;DHT22;28087;-33.874;151.240;2022-11-23T16:43:05;19.80;99.90
20795;DHT22;28087;-33.874;151.240;2022-11-23T16:45:43;19.90;99.90
20795;DHT22;28087;-33.874;151.240;2022-11-23T16:48:40;19.80;99.90
20795;DHT22;28087;-33.874;151.240;2022-11-23T16:51:19;19.80;99.90
20795;DHT22;28087;-33.874;151.240;2022-11-23T16:53:57;19.80;99.90
20795;DHT22;28087;-33.874;151.240;2022-11-23T16:56:53;19.70;99.90
20795;DHT22;28087;-33.874;151.240;2022-11-23T16:59:30;19.80;99.90
20795;DHT22;28087;-33.874;151.240;2022-11-23T17:02:11;19.80;99.90
20795;DHT22;28087;-33.874;151.240;2022-11-23T17:04:48;19.80;99.90
20795;DHT22;28087;-33.874;151.240;2022-11-23T17:07:26;19.90;99.90
20795;DHT22;28087;-33.874;151.240;2022-11-23T17:10:03;19.80;99.90
20795;DHT22;28087;-33.874;151.240;2022-11-23T17:12:42;19.80;99.90
20795;DHT22;28087;-33.874;151.240;2022-11-23T17:15:22;19.80;99.90
20795;DHT22;28087;-33.874;151.240;2022-11-23T17:17:58;19.70;99.90
20795;DHT22;28087;-33.874;151.240;2022-11-23T17:20:34;19.70;99.90
20795;DHT22;28087;-33.874;151.240;2022-11-23T17:23:12;19.70;99.90
20795;DHT22;28087;-33.874;151.240;2022-11-23T17:25:49;19.70;99.90
20795;DHT22;28087;-33.874;151.240;2022-11-23T17:28:26;19.70;99.90
20795;DHT22;28087;-33.874;151.240;2022-11-23T17:31:03;19.70;99.90
20795;DHT22;28087;-33.874;151.240;2022-11-23T17:33:39;19.70;99.90
20795;DHT22;28087;-33.874;151.240;2022-11-23T17:36:16;19.70;99.90
20795;DHT22;28087;-33.874;151.240;2022-11-23T17:38:54;19.60;99.90
20795;DHT22;28087;-33.874;151.240;2022-11-23T17:41:30;19.60;99.90
20795;DHT22;28087;-33.874;151.240;2022-11-23T17:44:08;19.60;99.90
20795;DHT22;28087;-33.874;151.240;2022-11-23T17:46:45;19.60;99.90
20795;DHT22;28087;-33.874;151.240;2022-11-23T17:49:22;19.60;99.90
20795;DHT22;28087;-33.874;151.240;2022-11-23T17:52:00;19.60;99.90
20795;DHT22;28087;-33.874;151.240;2022-11-23T17:54:38;19.50;99.90
20795;DHT22;28087;-33.874;151.240;2022-11-23T17:57:16;19.50;99.90
20795;DHT22;28087;-33.874;151.240;2022-11-23T17:59:54;19.50;99.90
20795;DHT22;28087;-33.874;151.240;2022-11-23T18:02:40;19.50;99.90
20795;DHT22;28087;-33.874;151.240;2022-11-23T18:05:16;19.40;99.90
20795;DHT22;28087;-33.874;151.240;2022-11-23T18:07:54;19.40;99.90
20795;DHT22;28087;-33.874;151.240;2022-11-23T18:10:32;19.40;99.90
20795;DHT22;28087;-33.874;151.240;2022-11-23T18:13:09;19.40;99.90
20795;DHT22;28087;-33.874;151.240;2022-11-23T18:15:46;19.40;99.90
20795;DHT22;28087;-33.874;151.240;2022-11-23T18:18:23;19.50;99.90
20795;DHT22;28087;-33.874;151.240;2022-11-23T18:20:59;19.50;99.90
20795;DHT22;28087;-33.874;151.240;2022-11-23T18:23:36;19.50;99.90
20795;DHT22;28087;-33.874;151.240;2022-11-23T18:26:19;19.50;99.90
20795;DHT22;28087;-33.874;151.240;2022-11-23T18:28:57;19.60;99.90
20795;DHT22;28087;-33.874;151.240;2022-11-23T18:31:34;19.50;99.90
20795;DHT22;28087;-33.874;151.240;2022-11-23T18:34:11;19.60;99.90
20795;DHT22;28087;-33.874;151.240;2022-11-23T18:36:47;19.60;99.90
20795;DHT22;28087;-33.874;151.240;2022-11-23T18:39:25;19.60;99.90
20795;DHT22;28087;-33.874;151.240;2022-11-23T18:42:04;19.70;99.90
20795;DHT22;28087;-33.874;151.240;2022-11-23T18:44:39;19.70;99.90
20795;DHT22;28087;-33.874;151.240;2022-11-23T18:47:17;19.70;99.90
20795;DHT22;28087;-33.874;151.240;2022-11-23T18:49:54;19.70;99.90
20795;DHT22;28087;-33.874;151.240;2022-11-23T18:52:36;19.70;99.90
20795;DHT22;28087;-33.874;151.240;2022-11-23T18:55:12;19.70;99.90
20795;DHT22;28087;-33.874;151.240;2022-11-23T18:57:53;19.70;99.90
20795;DHT22;28087;-33.874;151.240;2022-11-23T19:00:29;19.70;99.90
20795;DHT22;28087;-33.874;151.240;2022-11-23T19:03:08;19.70;99.90
20795;DHT22;28087;-33.874;151.240;2022-11-23T19:05:44;19.80;99.90
20795;DHT22;28087;-33.874;151.240;2022-11-23T19:08:20;19.80;99.90
20795;DHT22;28087;-33.874;151.240;2022-11-23T19:11:05;19.90;99.90
20795;DHT22;28087;-33.874;151.240;2022-11-23T19:13:47;19.90;99.90
20795;DHT22;28087;-33.874;151.240;2022-11-23T19:16:24;20.00;99.90
20795;DHT22;28087;-33.874;151.240;2022-11-23T19:19:03;20.00;99.90
20795;DHT22;28087;-33.874;151.240;2022-11-23T19:21:40;20.00;99.90
20795;DHT22;28087;-33.874;151.240;2022-11-23T19:24:15;20.00;99.90
20795;DHT22;28087;-33.874;151.240;2022-11-23T19:26:54;19.90;99.90
20795;DHT22;28087;-33.874;151.240;2022-11-23T19:29:32;19.80;99.90
20795;DHT22;28087;-33.874;151.240;2022-11-23T19:32:09;19.80;99.90
20795;DHT22;28087;-33.874;151.240;2022-11-23T19:34:46;19.80;99.90
20795;DHT22;28087;-33.874;151.240;2022-11-23T19:37:23;19.90;99.90
20795;DHT22;28087;-33.874;151.240;2022-11-23T19:39:59;19.80;99.90
20795;DHT22;28087;-33.874;151.240;2022-11-23T19:42:36;19.80;99.90
20795;DHT22;28087;-33.874;151.240;2022-11-23T19:45:13;19.80;99.90
20795;DHT22;28087;-33.874;151.240;2022-11-23T19:47:49;19.90;99.90
20795;DHT22;28087;-33.874;151.240;2022-11-23T19:50:26;19.90;99.90
20795;DHT22;28087;-33.874;151.240;2022-11-23T19:53:02;19.90;99.90
20795;DHT22;28087;-33.874;151.240;2022-11-23T19:55:43;19.90;99.90
20795;DHT22;28087;-33.874;151.240;2022-11-23T19:58:19;19.90;99.90
20795;DHT22;28087;-33.874;151.240;2022-11-23T20:01:03;19.90;99.90
20795;DHT22;28087;-33.874;151.240;2022-11-23T20:03:40;19.90;99.90
20795;DHT22;28087;-33.874;151.240;2022-11-23T20:06:18;20.00;99.90
20795;DHT22;28087;-33.874;151.240;2022-11-23T20:08:56;20.10;99.90
20795;DHT22;28087;-33.874;151.240;2022-11-23T20:11:34;20.20;99.90
20795;DHT22;28087;-33.874;151.240;2022-11-23T20:14:11;20.30;99.90
20795;DHT22;28087;-33.874;151.240;2022-11-23T20:16:49;20.50;99.90
20795;DHT22;28087;-33.874;151.240;2022-11-23T20:19:27;20.60;99.90
20795;DHT22;28087;-33.874;151.240;2022-11-23T20:22:06;20.80;99.90
20795;DHT22;28087;-33.874;151.240;2022-11-23T20:24:41;21.00;99.90
20795;DHT22;28087;-33.874;151.240;2022-11-23T20:27:17;21.10;99.90
20795;DHT22;28087;-33.874;151.240;2022-11-23T20:29:53;21.20;99.90
20795;DHT22;28087;-33.874;151.240;2022-11-23T20:32:32;21.40;99.90
20795;DHT22;28087;-33.874;151.240;2022-11-23T20:35:08;21.50;99.90
20795;DHT22;28087;-33.874;151.240;2022-11-23T20:37:48;21.60;99.90
20795;DHT22;28087;-33.874;151.240;2022-11-23T20:40:24;21.60;99.90
20795;DHT22;28087;-33.874;151.240;2022-11-23T20:43:01;21.70;99.90